sensor_id;sensor_type;location;lat;lon;timestamp;P1;durP1;ratioP1;P2;durP2;ratioP2
21091;SDS011;10704;42.678;23.288;2023-06-19T00:00:58;6.80;;;4.78;;
21091;SDS011;10704;42.678;23.288;2023-06-19T00:03:24;7.22;;;4.90;;
21091;SDS011;10704;42.678;23.288;2023-06-19T00:09:37;9.30;;;4.50;;
21091;SDS011;10704;42.678;23.288;2023-06-19T00:12:03;7.05;;;4.53;;
21091;SDS011;10704;42.678;23.288;2023-06-19T00:14:29;5.95;;;4.53;;
21091;SDS011;10704;42.678;23.288;2023-06-19T00:16:55;8.60;;;5.28;;
21091;SDS011;10704;42.678;23.288;2023-06-19T00:19:21;7.25;;;4.68;;
21091;SDS011;10704;42.678;23.288;2023-06-19T00:21:48;6.95;;;4.68;;
21091;SDS011;10704;42.678;23.288;2023-06-19T00:24:14;7.93;;;4.50;;
21091;SDS011;10704;42.678;23.288;2023-06-19T00:26:40;8.32;;;4.55;;
21091;SDS011;10704;42.678;23.288;2023-06-19T00:29:05;6.75;;;4.47;;
21091;SDS011;10704;42.678;23.288;2023-06-19T00:31:32;7.72;;;4.97;;
21091;SDS011;10704;42.678;23.288;2023-06-19T00:33:58;8.05;;;4.97;;
21091;SDS011;10704;42.678;23.288;2023-06-19T00:36:24;8.68;;;4.78;;
21091;SDS011;10704;42.678;23.288;2023-06-19T00:38:51;8.02;;;4.55;;
21091;SDS011;10704;42.678;23.288;2023-06-19T00:41:17;7.78;;;4.70;;
21091;SDS011;10704;42.678;23.288;2023-06-19T00:43:45;8.95;;;4.90;;
21091;SDS011;10704;42.678;23.288;2023-06-19T00:46:11;7.72;;;4.32;;
21091;SDS011;10704;42.678;23.288;2023-06-19T00:48:37;6.43;;;4.57;;
21091;SDS011;10704;42.678;23.288;2023-06-19T00:51:13;8.32;;;4.93;;
21091;SDS011;10704;42.678;23.288;2023-06-19T00:53:39;5.90;;;3.92;;
21091;SDS011;10704;42.678;23.288;2023-06-19T00:59:52;12.20;;;4.20;;
21091;SDS011;10704;42.678;23.288;2023-06-19T01:02:19;6.85;;;4.70;;
21091;SDS011;10704;42.678;23.288;2023-06-19T01:04:49;10.00;;;5.28;;
21091;SDS011;10704;42.678;23.288;2023-06-19T01:11:04;8.15;;;4.82;;
21091;SDS011;10704;42.678;23.288;2023-06-19T01:21:18;6.28;;;4.45;;
21091;SDS011;10704;42.678;23.288;2023-06-19T01:23:44;8.63;;;4.55;;
21091;SDS011;10704;42.678;23.288;2023-06-19T01:26:30;7.85;;;4.70;;
21091;SDS011;10704;42.678;23.288;2023-06-19T01:28:57;10.10;;;4.72;;
21091;SDS011;10704;42.678;23.288;2023-06-19T01:31:25;8.10;;;5.28;;
21091;SDS011;10704;42.678;23.288;2023-06-19T01:34:03;10.50;;;4.93;;
21091;SDS011;10704;42.678;23.288;2023-06-19T01:36:52;8.88;;;4.88;;
21091;SDS011;10704;42.678;23.288;2023-06-19T01:39:22;7.03;;;4.72;;
21091;SDS011;10704;42.678;23.288;2023-06-19T01:41:49;10.00;;;5.13;;
21091;SDS011;10704;42.678;23.288;2023-06-19T01:47:16;8.93;;;4.85;;
21091;SDS011;10704;42.678;23.288;2023-06-19T01:56:46;8.40;;;5.45;;
21091;SDS011;10704;42.678;23.288;2023-06-19T01:59:13;8.95;;;4.53;;
21091;SDS011;10704;42.678;23.288;2023-06-19T02:01:39;6.63;;;4.72;;
21091;SDS011;10704;42.678;23.288;2023-06-19T02:04:04;7.85;;;5.60;;
21091;SDS011;10704;42.678;23.288;2023-06-19T02:06:30;8.43;;;5.32;;
21091;SDS011;10704;42.678;23.288;2023-06-19T02:08:56;8.40;;;5.20;;
21091;SDS011;10704;42.678;23.288;2023-06-19T02:15:23;8.60;;;5.40;;
21091;SDS011;10704;42.678;23.288;2023-06-19T02:17:49;9.18;;;5.35;;
21091;SDS011;10704;42.678;23.288;2023-06-19T02:20:20;8.45;;;5.57;;
21091;SDS011;10704;42.678;23.288;2023-06-19T02:22:47;11.52;;;5.53;;
21091;SDS011;10704;42.678;23.288;2023-06-19T02:25:13;15.75;;;6.57;;
21091;SDS011;10704;42.678;23.288;2023-06-19T02:27:42;9.30;;;5.10;;
21091;SDS011;10704;42.678;23.288;2023-06-19T02:30:08;10.05;;;5.75;;
21091;SDS011;10704;42.678;23.288;2023-06-19T02:36:21;9.50;;;5.70;;
21091;SDS011;10704;42.678;23.288;2023-06-19T02:42:34;12.68;;;5.65;;
21091;SDS011;10704;42.678;23.288;2023-06-19T02:45:00;11.18;;;6.00;;
21091;SDS011;10704;42.678;23.288;2023-06-19T02:47:29;9.30;;;6.35;;
21091;SDS011;10704;42.678;23.288;2023-06-19T02:49:59;8.30;;;6.05;;
21091;SDS011;10704;42.678;23.288;2023-06-19T02:52:26;12.98;;;6.60;;
21091;SDS011;10704;42.678;23.288;2023-06-19T02:58:40;8.02;;;5.78;;
21091;SDS011;10704;42.678;23.288;2023-06-19T03:01:07;10.13;;;6.70;;
21091;SDS011;10704;42.678;23.288;2023-06-19T03:03:33;9.70;;;6.70;;
21091;SDS011;10704;42.678;23.288;2023-06-19T03:09:49;10.07;;;6.78;;
21091;SDS011;10704;42.678;23.288;2023-06-19T03:12:15;12.23;;;7.07;;
21091;SDS011;10704;42.678;23.288;2023-06-19T03:14:41;9.68;;;6.43;;
21091;SDS011;10704;42.678;23.288;2023-06-19T03:17:08;10.57;;;7.25;;
21091;SDS011;10704;42.678;23.288;2023-06-19T03:19:34;14.13;;;7.18;;
21091;SDS011;10704;42.678;23.288;2023-06-19T03:22:00;12.25;;;7.10;;
21091;SDS011;10704;42.678;23.288;2023-06-19T03:24:26;12.07;;;6.68;;
21091;SDS011;10704;42.678;23.288;2023-06-19T03:26:55;13.95;;;7.75;;
21091;SDS011;10704;42.678;23.288;2023-06-19T03:29:20;10.27;;;6.82;;
21091;SDS011;10704;42.678;23.288;2023-06-19T03:31:52;10.77;;;6.57;;
21091;SDS011;10704;42.678;23.288;2023-06-19T03:34:21;11.60;;;7.03;;
21091;SDS011;10704;42.678;23.288;2023-06-19T03:36:47;11.65;;;6.40;;
21091;SDS011;10704;42.678;23.288;2023-06-19T03:39:13;11.52;;;6.78;;
21091;SDS011;10704;42.678;23.288;2023-06-19T03:41:39;12.15;;;7.38;;
21091;SDS011;10704;42.678;23.288;2023-06-19T03:47:53;12.55;;;6.75;;
21091;SDS011;10704;42.678;23.288;2023-06-19T03:54:31;12.27;;;6.10;;
21091;SDS011;10704;42.678;23.288;2023-06-19T03:56:58;12.98;;;6.57;;
21091;SDS011;10704;42.678;23.288;2023-06-19T04:07:00;13.60;;;6.97;;
21091;SDS011;10704;42.678;23.288;2023-06-19T04:09:26;12.88;;;7.82;;
21091;SDS011;10704;42.678;23.288;2023-06-19T04:11:53;10.70;;;6.85;;
21091;SDS011;10704;42.678;23.288;2023-06-19T04:14:19;15.15;;;7.72;;
21091;SDS011;10704;42.678;23.288;2023-06-19T04:16:49;10.50;;;6.47;;
21091;SDS011;10704;42.678;23.288;2023-06-19T04:26:17;15.77;;;7.32;;
21091;SDS011;10704;42.678;23.288;2023-06-19T04:28:44;14.07;;;7.68;;
21091;SDS011;10704;42.678;23.288;2023-06-19T04:31:10;9.48;;;6.53;;
21091;SDS011;10704;42.678;23.288;2023-06-19T04:33:35;10.93;;;7.25;;
21091;SDS011;10704;42.678;23.288;2023-06-19T04:36:01;11.93;;;6.97;;
21091;SDS011;10704;42.678;23.288;2023-06-19T04:38:27;10.85;;;6.10;;
21091;SDS011;10704;42.678;23.288;2023-06-19T04:40:53;9.23;;;6.53;;
21091;SDS011;10704;42.678;23.288;2023-06-19T04:43:19;11.25;;;5.80;;
21091;SDS011;10704;42.678;23.288;2023-06-19T04:45:45;9.40;;;5.80;;
21091;SDS011;10704;42.678;23.288;2023-06-19T04:48:11;8.35;;;5.43;;
21091;SDS011;10704;42.678;23.288;2023-06-19T04:50:37;6.75;;;4.75;;
21091;SDS011;10704;42.678;23.288;2023-06-19T04:53:03;9.02;;;5.30;;
21091;SDS011;10704;42.678;23.288;2023-06-19T04:55:28;10.27;;;6.57;;
21091;SDS011;10704;42.678;23.288;2023-06-19T04:57:55;8.80;;;5.75;;
21091;SDS011;10704;42.678;23.288;2023-06-19T05:00:21;6.68;;;5.10;;
21091;SDS011;10704;42.678;23.288;2023-06-19T05:02:49;9.27;;;4.82;;
21091;SDS011;10704;42.678;23.288;2023-06-19T05:05:15;7.85;;;5.10;;
21091;SDS011;10704;42.678;23.288;2023-06-19T05:15:37;8.68;;;5.13;;
21091;SDS011;10704;42.678;23.288;2023-06-19T05:18:03;7.20;;;4.88;;
21091;SDS011;10704;42.678;23.288;2023-06-19T05:20:29;7.65;;;4.65;;
21091;SDS011;10704;42.678;23.288;2023-06-19T05:22:55;6.95;;;4.40;;
21091;SDS011;10704;42.678;23.288;2023-06-19T05:25:21;10.77;;;4.97;;
21091;SDS011;10704;42.678;23.288;2023-06-19T05:27:47;10.35;;;4.65;;
21091;SDS011;10704;42.678;23.288;2023-06-19T05:30:13;6.43;;;4.57;;
21091;SDS011;10704;42.678;23.288;2023-06-19T05:36:26;6.30;;;4.28;;
21091;SDS011;10704;42.678;23.288;2023-06-19T05:38:52;9.07;;;4.78;;
21091;SDS011;10704;42.678;23.288;2023-06-19T05:48:53;8.13;;;5.95;;
21091;SDS011;10704;42.678;23.288;2023-06-19T05:51:23;7.55;;;4.65;;
21091;SDS011;10704;42.678;23.288;2023-06-19T05:53:49;8.35;;;5.07;;
21091;SDS011;10704;42.678;23.288;2023-06-19T05:56:15;8.13;;;4.88;;
21091;SDS011;10704;42.678;23.288;2023-06-19T05:58:41;9.13;;;4.60;;
21091;SDS011;10704;42.678;23.288;2023-06-19T06:01:07;6.70;;;4.53;;
21091;SDS011;10704;42.678;23.288;2023-06-19T06:03:33;7.70;;;4.43;;
21091;SDS011;10704;42.678;23.288;2023-06-19T06:05:58;6.47;;;4.50;;
21091;SDS011;10704;42.678;23.288;2023-06-19T06:08:28;7.70;;;4.40;;
21091;SDS011;10704;42.678;23.288;2023-06-19T06:10:55;6.43;;;4.22;;
21091;SDS011;10704;42.678;23.288;2023-06-19T06:13:21;7.47;;;4.95;;
21091;SDS011;10704;42.678;23.288;2023-06-19T06:15:47;6.50;;;4.03;;
21091;SDS011;10704;42.678;23.288;2023-06-19T06:18:13;8.00;;;4.47;;
21091;SDS011;10704;42.678;23.288;2023-06-19T06:20:38;8.40;;;4.70;;
21091;SDS011;10704;42.678;23.288;2023-06-19T06:23:04;6.72;;;4.60;;
21091;SDS011;10704;42.678;23.288;2023-06-19T06:25:30;7.32;;;4.40;;
21091;SDS011;10704;42.678;23.288;2023-06-19T06:27:56;7.65;;;5.05;;
21091;SDS011;10704;42.678;23.288;2023-06-19T06:30:22;7.65;;;4.68;;
21091;SDS011;10704;42.678;23.288;2023-06-19T06:32:48;7.82;;;5.18;;
21091;SDS011;10704;42.678;23.288;2023-06-19T06:35:15;9.60;;;5.28;;
21091;SDS011;10704;42.678;23.288;2023-06-19T06:37:41;6.75;;;4.78;;
21091;SDS011;10704;42.678;23.288;2023-06-19T06:40:09;8.68;;;4.88;;
21091;SDS011;10704;42.678;23.288;2023-06-19T06:42:36;8.00;;;5.35;;
21091;SDS011;10704;42.678;23.288;2023-06-19T06:45:04;7.50;;;5.00;;
21091;SDS011;10704;42.678;23.288;2023-06-19T06:47:30;9.32;;;4.63;;
21091;SDS011;10704;42.678;23.288;2023-06-19T06:49:56;7.13;;;4.53;;
21091;SDS011;10704;42.678;23.288;2023-06-19T06:52:22;8.38;;;4.80;;
21091;SDS011;10704;42.678;23.288;2023-06-19T06:54:49;6.43;;;3.97;;
21091;SDS011;10704;42.678;23.288;2023-06-19T06:57:15;6.57;;;4.43;;
21091;SDS011;10704;42.678;23.288;2023-06-19T07:02:35;7.28;;;4.10;;
21091;SDS011;10704;42.678;23.288;2023-06-19T07:08:49;6.70;;;4.18;;
21091;SDS011;10704;42.678;23.288;2023-06-19T07:11:16;7.38;;;4.22;;
21091;SDS011;10704;42.678;23.288;2023-06-19T07:13:42;6.55;;;4.72;;
21091;SDS011;10704;42.678;23.288;2023-06-19T07:19:54;6.80;;;3.75;;
21091;SDS011;10704;42.678;23.288;2023-06-19T07:26:08;7.50;;;4.82;;
21091;SDS011;10704;42.678;23.288;2023-06-19T07:28:35;11.93;;;4.22;;
21091;SDS011;10704;42.678;23.288;2023-06-19T07:31:03;8.75;;;4.78;;
21091;SDS011;10704;42.678;23.288;2023-06-19T07:33:29;6.35;;;4.10;;
21091;SDS011;10704;42.678;23.288;2023-06-19T07:35:55;6.70;;;4.70;;
21091;SDS011;10704;42.678;23.288;2023-06-19T07:38:21;7.45;;;4.32;;
21091;SDS011;10704;42.678;23.288;2023-06-19T07:44:41;6.05;;;4.13;;
21091;SDS011;10704;42.678;23.288;2023-06-19T07:47:07;7.03;;;4.18;;
21091;SDS011;10704;42.678;23.288;2023-06-19T07:49:33;7.03;;;4.55;;
21091;SDS011;10704;42.678;23.288;2023-06-19T07:52:00;5.63;;;4.18;;
21091;SDS011;10704;42.678;23.288;2023-06-19T07:54:25;6.45;;;3.50;;
21091;SDS011;10704;42.678;23.288;2023-06-19T07:56:51;7.47;;;4.55;;
21091;SDS011;10704;42.678;23.288;2023-06-19T07:59:17;6.75;;;4.03;;
21091;SDS011;10704;42.678;23.288;2023-06-19T08:01:44;6.72;;;4.68;;
21091;SDS011;10704;42.678;23.288;2023-06-19T08:04:19;6.65;;;4.60;;
21091;SDS011;10704;42.678;23.288;2023-06-19T08:06:45;6.32;;;4.22;;
21091;SDS011;10704;42.678;23.288;2023-06-19T08:12:29;7.63;;;4.10;;
21091;SDS011;10704;42.678;23.288;2023-06-19T08:14:55;7.32;;;4.20;;
21091;SDS011;10704;42.678;23.288;2023-06-19T08:17:21;11.32;;;6.43;;
21091;SDS011;10704;42.678;23.288;2023-06-19T08:19:47;7.93;;;5.55;;
21091;SDS011;10704;42.678;23.288;2023-06-19T08:22:13;6.57;;;4.82;;
21091;SDS011;10704;42.678;23.288;2023-06-19T08:24:39;6.28;;;4.00;;
21091;SDS011;10704;42.678;23.288;2023-06-19T08:27:06;6.20;;;4.07;;
21091;SDS011;10704;42.678;23.288;2023-06-19T08:29:32;9.82;;;4.93;;
21091;SDS011;10704;42.678;23.288;2023-06-19T08:31:58;7.43;;;4.43;;
21091;SDS011;10704;42.678;23.288;2023-06-19T08:34:24;9.63;;;5.32;;
21091;SDS011;10704;42.678;23.288;2023-06-19T08:36:51;7.63;;;5.22;;
21091;SDS011;10704;42.678;23.288;2023-06-19T08:39:17;7.43;;;4.05;;
21091;SDS011;10704;42.678;23.288;2023-06-19T08:41:43;7.18;;;3.50;;
21091;SDS011;10704;42.678;23.288;2023-06-19T08:44:14;5.93;;;4.40;;
21091;SDS011;10704;42.678;23.288;2023-06-19T08:46:40;8.38;;;4.00;;
21091;SDS011;10704;42.678;23.288;2023-06-19T08:49:07;7.85;;;4.15;;
21091;SDS011;10704;42.678;23.288;2023-06-19T08:51:35;7.35;;;4.72;;
21091;SDS011;10704;42.678;23.288;2023-06-19T08:54:04;7.35;;;4.22;;
21091;SDS011;10704;42.678;23.288;2023-06-19T08:56:32;5.95;;;3.50;;
21091;SDS011;10704;42.678;23.288;2023-06-19T08:59:15;5.93;;;4.43;;
21091;SDS011;10704;42.678;23.288;2023-06-19T09:01:49;7.25;;;4.03;;
21091;SDS011;10704;42.678;23.288;2023-06-19T09:04:24;6.30;;;4.22;;
21091;SDS011;10704;42.678;23.288;2023-06-19T09:09:26;7.75;;;4.32;;
21091;SDS011;10704;42.678;23.288;2023-06-19T09:12:00;8.50;;;4.57;;
21091;SDS011;10704;42.678;23.288;2023-06-19T09:17:03;7.00;;;3.97;;
21091;SDS011;10704;42.678;23.288;2023-06-19T09:19:30;7.97;;;4.43;;
21091;SDS011;10704;42.678;23.288;2023-06-19T09:22:03;7.85;;;4.50;;
21091;SDS011;10704;42.678;23.288;2023-06-19T09:24:38;5.57;;;4.07;;
21091;SDS011;10704;42.678;23.288;2023-06-19T09:27:06;7.03;;;4.13;;
21091;SDS011;10704;42.678;23.288;2023-06-19T09:29:35;9.02;;;5.13;;
21091;SDS011;10704;42.678;23.288;2023-06-19T09:32:13;5.88;;;4.18;;
21091;SDS011;10704;42.678;23.288;2023-06-19T09:34:39;8.50;;;3.92;;
21091;SDS011;10704;42.678;23.288;2023-06-19T09:37:05;7.30;;;4.50;;
21091;SDS011;10704;42.678;23.288;2023-06-19T09:39:33;8.57;;;4.75;;
21091;SDS011;10704;42.678;23.288;2023-06-19T09:49:37;7.95;;;4.32;;
21091;SDS011;10704;42.678;23.288;2023-06-19T09:52:04;9.23;;;5.25;;
21091;SDS011;10704;42.678;23.288;2023-06-19T09:54:30;7.93;;;4.65;;
21091;SDS011;10704;42.678;23.288;2023-06-19T09:56:56;7.63;;;4.80;;
21091;SDS011;10704;42.678;23.288;2023-06-19T09:59:28;7.32;;;4.70;;
21091;SDS011;10704;42.678;23.288;2023-06-19T10:01:54;10.57;;;7.28;;
21091;SDS011;10704;42.678;23.288;2023-06-19T10:08:08;6.05;;;4.63;;
21091;SDS011;10704;42.678;23.288;2023-06-19T10:16:20;6.43;;;4.78;;
21091;SDS011;10704;42.678;23.288;2023-06-19T10:18:47;6.75;;;4.50;;
21091;SDS011;10704;42.678;23.288;2023-06-19T10:21:17;9.63;;;4.82;;
21091;SDS011;10704;42.678;23.288;2023-06-19T10:23:52;7.40;;;4.88;;
21091;SDS011;10704;42.678;23.288;2023-06-19T10:26:20;11.35;;;4.10;;
21091;SDS011;10704;42.678;23.288;2023-06-19T10:28:54;8.48;;;5.40;;
21091;SDS011;10704;42.678;23.288;2023-06-19T10:31:20;5.63;;;4.38;;
21091;SDS011;10704;42.678;23.288;2023-06-19T10:33:46;7.10;;;4.18;;
21091;SDS011;10704;42.678;23.288;2023-06-19T10:39:59;7.00;;;4.22;;
21091;SDS011;10704;42.678;23.288;2023-06-19T10:42:34;7.85;;;4.40;;
21091;SDS011;10704;42.678;23.288;2023-06-19T10:45:03;7.47;;;4.53;;
21091;SDS011;10704;42.678;23.288;2023-06-19T10:47:32;6.20;;;4.50;;
21091;SDS011;10704;42.678;23.288;2023-06-19T10:49:58;11.82;;;7.78;;
21091;SDS011;10704;42.678;23.288;2023-06-19T10:52:24;8.18;;;5.80;;
21091;SDS011;10704;42.678;23.288;2023-06-19T10:54:53;7.18;;;4.78;;
21091;SDS011;10704;42.678;23.288;2023-06-19T10:57:29;6.65;;;5.13;;
21091;SDS011;10704;42.678;23.288;2023-06-19T10:59:56;7.53;;;4.25;;
21091;SDS011;10704;42.678;23.288;2023-06-19T11:06:10;6.28;;;4.40;;
21091;SDS011;10704;42.678;23.288;2023-06-19T11:08:36;6.43;;;4.50;;
21091;SDS011;10704;42.678;23.288;2023-06-19T11:11:02;7.00;;;3.88;;
21091;SDS011;10704;42.678;23.288;2023-06-19T11:13:28;6.63;;;4.28;;
21091;SDS011;10704;42.678;23.288;2023-06-19T11:15:54;6.85;;;4.85;;
21091;SDS011;10704;42.678;23.288;2023-06-19T11:18:20;7.90;;;5.20;;
21091;SDS011;10704;42.678;23.288;2023-06-19T11:20:50;6.90;;;3.83;;
21091;SDS011;10704;42.678;23.288;2023-06-19T11:23:17;7.20;;;4.50;;
21091;SDS011;10704;42.678;23.288;2023-06-19T11:25:50;9.93;;;5.55;;
21091;SDS011;10704;42.678;23.288;2023-06-19T11:28:16;7.03;;;4.93;;
21091;SDS011;10704;42.678;23.288;2023-06-19T11:30:47;8.82;;;4.43;;
21091;SDS011;10704;42.678;23.288;2023-06-19T11:37:11;10.00;;;6.80;;
21091;SDS011;10704;42.678;23.288;2023-06-19T11:39:43;6.53;;;4.55;;
21091;SDS011;10704;42.678;23.288;2023-06-19T11:42:11;7.38;;;5.07;;
21091;SDS011;10704;42.678;23.288;2023-06-19T11:44:55;7.30;;;4.93;;
21091;SDS011;10704;42.678;23.288;2023-06-19T11:47:31;7.60;;;5.05;;
21091;SDS011;10704;42.678;23.288;2023-06-19T11:49:58;8.63;;;4.65;;
21091;SDS011;10704;42.678;23.288;2023-06-19T11:52:28;7.13;;;5.32;;
21091;SDS011;10704;42.678;23.288;2023-06-19T12:01:46;8.35;;;4.85;;
21091;SDS011;10704;42.678;23.288;2023-06-19T12:04:18;6.15;;;4.43;;
21091;SDS011;10704;42.678;23.288;2023-06-19T12:06:44;12.00;;;5.38;;
21091;SDS011;10704;42.678;23.288;2023-06-19T12:09:10;7.85;;;5.53;;
21091;SDS011;10704;42.678;23.288;2023-06-19T12:11:36;6.82;;;4.88;;
21091;SDS011;10704;42.678;23.288;2023-06-19T12:14:03;5.53;;;4.47;;
21091;SDS011;10704;42.678;23.288;2023-06-19T12:24:04;6.13;;;4.70;;
21091;SDS011;10704;42.678;23.288;2023-06-19T12:26:31;7.05;;;4.75;;
21091;SDS011;10704;42.678;23.288;2023-06-19T12:29:02;6.18;;;4.38;;
21091;SDS011;10704;42.678;23.288;2023-06-19T12:31:31;7.95;;;4.88;;
21091;SDS011;10704;42.678;23.288;2023-06-19T12:33:58;6.60;;;4.53;;
21091;SDS011;10704;42.678;23.288;2023-06-19T12:36:24;7.45;;;5.07;;
21091;SDS011;10704;42.678;23.288;2023-06-19T12:50:12;7.82;;;5.20;;
21091;SDS011;10704;42.678;23.288;2023-06-19T12:52:38;8.57;;;4.95;;
21091;SDS011;10704;42.678;23.288;2023-06-19T12:55:04;10.50;;;5.22;;
21091;SDS011;10704;42.678;23.288;2023-06-19T12:57:30;9.77;;;4.70;;
21091;SDS011;10704;42.678;23.288;2023-06-19T12:59:55;6.18;;;4.50;;
21091;SDS011;10704;42.678;23.288;2023-06-19T13:02:21;6.25;;;4.72;;
21091;SDS011;10704;42.678;23.288;2023-06-19T13:04:47;8.00;;;4.95;;
21091;SDS011;10704;42.678;23.288;2023-06-19T13:07:14;6.85;;;4.60;;
21091;SDS011;10704;42.678;23.288;2023-06-19T13:09:41;8.15;;;5.32;;
21091;SDS011;10704;42.678;23.288;2023-06-19T13:12:07;7.88;;;4.95;;
21091;SDS011;10704;42.678;23.288;2023-06-19T13:14:33;9.98;;;5.05;;
21091;SDS011;10704;42.678;23.288;2023-06-19T13:16:59;6.50;;;4.88;;
21091;SDS011;10704;42.678;23.288;2023-06-19T13:19:25;5.55;;;3.75;;
21091;SDS011;10704;42.678;23.288;2023-06-19T13:21:51;7.18;;;4.57;;
21091;SDS011;10704;42.678;23.288;2023-06-19T13:24:17;10.05;;;4.70;;
21091;SDS011;10704;42.678;23.288;2023-06-19T13:26:44;7.97;;;4.55;;
21091;SDS011;10704;42.678;23.288;2023-06-19T13:29:13;7.28;;;4.68;;
21091;SDS011;10704;42.678;23.288;2023-06-19T13:31:38;6.28;;;4.95;;
21091;SDS011;10704;42.678;23.288;2023-06-19T13:34:04;7.50;;;5.40;;
21091;SDS011;10704;42.678;23.288;2023-06-19T13:36:30;5.65;;;4.40;;
21091;SDS011;10704;42.678;23.288;2023-06-19T13:38:56;8.65;;;4.35;;
21091;SDS011;10704;42.678;23.288;2023-06-19T13:41:24;9.73;;;5.72;;
21091;SDS011;10704;42.678;23.288;2023-06-19T13:43:50;8.85;;;4.85;;
21091;SDS011;10704;42.678;23.288;2023-06-19T13:53:53;8.20;;;5.10;;
21091;SDS011;10704;42.678;23.288;2023-06-19T13:56:19;7.40;;;4.90;;
21091;SDS011;10704;42.678;23.288;2023-06-19T13:58:46;5.95;;;4.32;;
21091;SDS011;10704;42.678;23.288;2023-06-19T14:01:12;7.95;;;4.57;;
21091;SDS011;10704;42.678;23.288;2023-06-19T14:07:00;9.60;;;5.65;;
21091;SDS011;10704;42.678;23.288;2023-06-19T14:12:13;7.45;;;5.05;;
21091;SDS011;10704;42.678;23.288;2023-06-19T14:14:40;12.00;;;5.72;;
21091;SDS011;10704;42.678;23.288;2023-06-19T14:17:05;7.38;;;4.88;;
21091;SDS011;10704;42.678;23.288;2023-06-19T14:19:32;6.75;;;4.32;;
21091;SDS011;10704;42.678;23.288;2023-06-19T14:21:58;8.73;;;5.18;;
21091;SDS011;10704;42.678;23.288;2023-06-19T14:24:23;7.07;;;4.85;;
21091;SDS011;10704;42.678;23.288;2023-06-19T14:26:49;11.90;;;4.72;;
21091;SDS011;10704;42.678;23.288;2023-06-19T14:29:15;7.53;;;4.30;;
21091;SDS011;10704;42.678;23.288;2023-06-19T14:31:43;6.18;;;4.30;;
21091;SDS011;10704;42.678;23.288;2023-06-19T14:34:09;7.60;;;4.35;;
21091;SDS011;10704;42.678;23.288;2023-06-19T14:36:37;7.35;;;4.25;;
21091;SDS011;10704;42.678;23.288;2023-06-19T14:39:03;10.38;;;3.88;;
21091;SDS011;10704;42.678;23.288;2023-06-19T14:44:45;7.45;;;4.97;;
21091;SDS011;10704;42.678;23.288;2023-06-19T14:47:11;8.40;;;6.38;;
21091;SDS011;10704;42.678;23.288;2023-06-19T14:49:37;10.70;;;7.05;;
21091;SDS011;10704;42.678;23.288;2023-06-19T14:52:03;9.35;;;6.07;;
21091;SDS011;10704;42.678;23.288;2023-06-19T14:54:30;12.85;;;9.15;;
21091;SDS011;10704;42.678;23.288;2023-06-19T14:56:56;10.05;;;6.00;;
21091;SDS011;10704;42.678;23.288;2023-06-19T15:03:09;6.68;;;5.00;;
21091;SDS011;10704;42.678;23.288;2023-06-19T15:05:35;9.02;;;6.28;;
21091;SDS011;10704;42.678;23.288;2023-06-19T15:10:53;7.40;;;4.80;;
21091;SDS011;10704;42.678;23.288;2023-06-19T15:16:22;8.95;;;5.45;;
21091;SDS011;10704;42.678;23.288;2023-06-19T15:19:08;7.22;;;5.22;;
21091;SDS011;10704;42.678;23.288;2023-06-19T15:21:34;7.47;;;5.72;;
21091;SDS011;10704;42.678;23.288;2023-06-19T15:24:00;8.10;;;5.07;;
21091;SDS011;10704;42.678;23.288;2023-06-19T15:26:26;19.23;;;6.35;;
21091;SDS011;10704;42.678;23.288;2023-06-19T15:28:52;8.52;;;5.65;;
21091;SDS011;10704;42.678;23.288;2023-06-19T15:31:20;7.60;;;5.68;;
21091;SDS011;10704;42.678;23.288;2023-06-19T15:33:50;9.07;;;5.68;;
21091;SDS011;10704;42.678;23.288;2023-06-19T15:36:16;8.98;;;6.32;;
21091;SDS011;10704;42.678;23.288;2023-06-19T15:38:42;8.75;;;5.70;;
21091;SDS011;10704;42.678;23.288;2023-06-19T15:41:09;15.10;;;5.93;;
21091;SDS011;10704;42.678;23.288;2023-06-19T15:43:35;6.00;;;5.00;;
21091;SDS011;10704;42.678;23.288;2023-06-19T15:46:00;11.70;;;7.43;;
21091;SDS011;10704;42.678;23.288;2023-06-19T15:48:27;9.27;;;5.32;;
21091;SDS011;10704;42.678;23.288;2023-06-19T15:50:54;7.65;;;5.40;;
21091;SDS011;10704;42.678;23.288;2023-06-19T15:53:20;8.48;;;5.35;;
21091;SDS011;10704;42.678;23.288;2023-06-19T15:55:46;16.42;;;5.63;;
21091;SDS011;10704;42.678;23.288;2023-06-19T15:58:11;7.00;;;5.43;;
21091;SDS011;10704;42.678;23.288;2023-06-19T16:00:37;7.55;;;5.15;;
21091;SDS011;10704;42.678;23.288;2023-06-19T16:03:03;7.93;;;4.85;;
21091;SDS011;10704;42.678;23.288;2023-06-19T16:05:30;8.07;;;5.72;;
21091;SDS011;10704;42.678;23.288;2023-06-19T16:07:56;9.63;;;5.50;;
21091;SDS011;10704;42.678;23.288;2023-06-19T16:10:22;9.05;;;6.28;;
21091;SDS011;10704;42.678;23.288;2023-06-19T16:12:48;9.20;;;5.85;;
21091;SDS011;10704;42.678;23.288;2023-06-19T16:15:17;10.02;;;7.15;;
21091;SDS011;10704;42.678;23.288;2023-06-19T16:17:49;12.57;;;8.25;;
21091;SDS011;10704;42.678;23.288;2023-06-19T16:20:16;8.48;;;6.20;;
21091;SDS011;10704;42.678;23.288;2023-06-19T16:22:42;9.52;;;6.30;;
21091;SDS011;10704;42.678;23.288;2023-06-19T16:25:08;10.70;;;7.10;;
21091;SDS011;10704;42.678;23.288;2023-06-19T16:27:35;9.80;;;6.53;;
21091;SDS011;10704;42.678;23.288;2023-06-19T16:30:02;8.20;;;5.93;;
21091;SDS011;10704;42.678;23.288;2023-06-19T16:32:28;8.00;;;5.57;;
21091;SDS011;10704;42.678;23.288;2023-06-19T16:34:54;11.63;;;5.95;;
21091;SDS011;10704;42.678;23.288;2023-06-19T16:37:20;9.35;;;5.63;;
21091;SDS011;10704;42.678;23.288;2023-06-19T16:39:45;9.85;;;5.85;;
21091;SDS011;10704;42.678;23.288;2023-06-19T16:42:11;11.23;;;5.60;;
21091;SDS011;10704;42.678;23.288;2023-06-19T16:44:39;9.32;;;5.47;;
21091;SDS011;10704;42.678;23.288;2023-06-19T16:47:05;10.23;;;5.90;;
21091;SDS011;10704;42.678;23.288;2023-06-19T16:49:31;7.90;;;5.20;;
21091;SDS011;10704;42.678;23.288;2023-06-19T16:51:57;7.55;;;5.45;;
21091;SDS011;10704;42.678;23.288;2023-06-19T16:54:23;8.60;;;5.93;;
21091;SDS011;10704;42.678;23.288;2023-06-19T16:56:49;8.32;;;6.10;;
21091;SDS011;10704;42.678;23.288;2023-06-19T16:59:19;12.18;;;7.65;;
21091;SDS011;10704;42.678;23.288;2023-06-19T17:01:45;15.38;;;8.95;;
21091;SDS011;10704;42.678;23.288;2023-06-19T17:07:58;10.80;;;7.22;;
21091;SDS011;10704;42.678;23.288;2023-06-19T17:10:24;11.68;;;7.45;;
21091;SDS011;10704;42.678;23.288;2023-06-19T17:12:51;11.38;;;8.05;;
21091;SDS011;10704;42.678;23.288;2023-06-19T17:15:17;13.55;;;6.90;;
21091;SDS011;10704;42.678;23.288;2023-06-19T17:17:43;9.52;;;6.63;;
21091;SDS011;10704;42.678;23.288;2023-06-19T17:20:09;9.38;;;6.22;;
21091;SDS011;10704;42.678;23.288;2023-06-19T17:22:37;9.82;;;5.40;;
21091;SDS011;10704;42.678;23.288;2023-06-19T17:25:03;12.77;;;6.43;;
21091;SDS011;10704;42.678;23.288;2023-06-19T17:27:29;9.02;;;5.80;;
21091;SDS011;10704;42.678;23.288;2023-06-19T17:29:55;8.25;;;6.63;;
21091;SDS011;10704;42.678;23.288;2023-06-19T17:32:21;10.27;;;5.90;;
21091;SDS011;10704;42.678;23.288;2023-06-19T17:38:06;10.30;;;5.43;;
21091;SDS011;10704;42.678;23.288;2023-06-19T17:44:19;12.25;;;5.45;;
21091;SDS011;10704;42.678;23.288;2023-06-19T17:46:50;8.27;;;6.50;;
21091;SDS011;10704;42.678;23.288;2023-06-19T17:49:17;8.57;;;6.75;;
21091;SDS011;10704;42.678;23.288;2023-06-19T17:51:47;10.30;;;6.15;;
21091;SDS011;10704;42.678;23.288;2023-06-19T17:54:13;9.38;;;6.55;;
21091;SDS011;10704;42.678;23.288;2023-06-19T17:56:39;12.40;;;6.80;;
21091;SDS011;10704;42.678;23.288;2023-06-19T17:59:05;12.20;;;8.10;;